createdAt,value
2023-04-22T00:00:04.531Z,12.70
2023-04-22T00:01:08.815Z,12.70
2023-04-22T00:03:31.530Z,13.60
2023-04-22T00:04:34.295Z,12.55
2023-04-22T00:05:41.639Z,12.10
2023-04-22T00:06:45.353Z,13.40
2023-04-22T00:07:51.907Z,11.80
2023-04-22T00:08:57.511Z,12.60
2023-04-22T00:09:59.801Z,11.90
2023-04-22T00:11:05.523Z,12.60
2023-04-22T00:12:10.256Z,12.80
2023-04-22T00:13:16.607Z,12.20
2023-04-22T00:14:20.502Z,12.60
2023-04-22T00:15:24.821Z,12.10
2023-04-22T00:16:27.200Z,12.00
2023-04-22T00:17:33.973Z,12.30
2023-04-22T00:18:36.571Z,12.80
2023-04-22T00:19:41.352Z,12.20
2023-04-22T00:20:44.848Z,12.00
2023-04-22T00:21:56.612Z,12.30
2023-04-22T00:22:58.984Z,12.90
2023-04-22T00:24:03.444Z,13.20
2023-04-22T00:25:10.290Z,13.30
2023-04-22T00:26:19.601Z,12.20
2023-04-22T00:27:24.930Z,12.00
2023-04-22T00:28:31.059Z,12.50
2023-04-22T00:29:34.510Z,12.80
2023-04-22T00:30:36.845Z,12.40
2023-04-22T00:31:40.908Z,12.80
2023-04-22T00:32:46.636Z,12.30
2023-04-22T00:33:49.534Z,11.80
2023-04-22T00:34:51.850Z,12.80
2023-04-22T00:35:55.049Z,13.10
2023-04-22T00:37:04.581Z,13.30
2023-04-22T00:38:10.540Z,15.70
2023-04-22T00:39:15.221Z,15.60
2023-04-22T00:40:22.211Z,14.80
2023-04-22T00:41:24.704Z,16.70
2023-04-22T00:42:29.403Z,15.10
2023-04-22T00:43:31.722Z,14.40
2023-04-22T00:44:36.390Z,14.10
2023-04-22T00:45:39.071Z,13.80
2023-04-22T00:46:41.396Z,11.50
2023-04-22T00:47:45.385Z,15.20
2023-04-22T00:48:47.660Z,14.70
2023-04-22T00:49:52.156Z,14.60
2023-04-22T00:50:54.504Z,14.80
2023-04-22T00:51:56.576Z,14.30
2023-04-22T00:52:58.875Z,14.70
2023-04-22T00:54:01.042Z,14.50
2023-04-22T00:55:04.003Z,13.80
2023-04-22T00:56:07.330Z,13.45
2023-04-22T00:57:10.117Z,12.60
2023-04-22T00:58:12.991Z,12.91
2023-04-22T00:59:16.198Z,13.55
2023-04-22T01:00:19.504Z,14.30
2023-04-22T01:01:21.953Z,12.55
2023-04-22T01:02:24.651Z,13.60
2023-04-22T01:03:27.774Z,12.18
2023-04-22T01:04:30.790Z,12.55
2023-04-22T01:05:34.460Z,10.90
2023-04-22T01:06:38.630Z,14.30
2023-04-22T01:07:41.027Z,11.70
2023-04-22T01:08:43.513Z,12.30
2023-04-22T01:09:45.847Z,12.00
2023-04-22T01:10:49.250Z,12.73
2023-04-22T01:11:51.437Z,13.20
2023-04-22T01:12:53.729Z,12.00
2023-04-22T01:13:55.922Z,12.20
2023-04-22T01:14:58.163Z,11.70
2023-04-22T01:16:00.733Z,12.50
2023-04-22T01:17:03.156Z,12.20
2023-04-22T01:18:06.194Z,11.90
2023-04-22T01:19:08.840Z,11.50
2023-04-22T01:20:12.048Z,11.90
2023-04-22T01:21:14.923Z,12.70
2023-04-22T01:22:17.775Z,11.64
2023-04-22T01:23:21.070Z,12.10
2023-04-22T01:24:23.405Z,11.90
2023-04-22T01:25:26.264Z,11.30
2023-04-22T01:26:28.599Z,11.50
2023-04-22T01:27:31.010Z,12.10
2023-04-22T01:28:33.371Z,12.30
2023-04-22T01:29:38.785Z,11.30
2023-04-22T01:30:42.528Z,12.70
2023-04-22T01:31:45.412Z,10.00
2023-04-22T01:32:47.996Z,11.70
2023-04-22T01:33:50.374Z,11.90
2023-04-22T01:34:52.575Z,12.90
2023-04-22T01:35:54.778Z,12.00
2023-04-22T01:36:57.196Z,12.40
2023-04-22T01:37:59.542Z,12.70
2023-04-22T01:39:02.213Z,11.70
2023-04-22T01:40:06.693Z,11.90
2023-04-22T01:41:09.605Z,12.20
2023-04-22T01:42:12.485Z,11.18
2023-04-22T01:43:14.773Z,13.18
2023-04-22T01:44:17.387Z,11.30
2023-04-22T01:45:19.456Z,11.80
2023-04-22T01:46:21.853Z,12.30
2023-04-22T01:47:25.205Z,11.70
2023-04-22T01:48:27.518Z,13.00
2023-04-22T01:49:29.721Z,11.70
2023-04-22T01:50:33.893Z,11.60
2023-04-22T01:51:36.164Z,12.30
2023-04-22T01:52:39.141Z,11.80
2023-04-22T01:53:41.522Z,13.10
2023-04-22T01:54:44.186Z,13.50
2023-04-22T01:55:47.232Z,12.50
2023-04-22T01:56:54.558Z,13.40
2023-04-22T01:57:56.922Z,12.30
2023-04-22T01:58:59.669Z,13.73
2023-04-22T02:00:05.602Z,12.00
2023-04-22T02:01:11.096Z,13.10
2023-04-22T02:02:13.560Z,13.10
2023-04-22T02:03:16.039Z,10.60
2023-04-22T02:04:18.667Z,14.20
2023-04-22T02:05:21.512Z,12.91
2023-04-22T02:06:24.174Z,12.80
2023-04-22T02:07:26.475Z,13.70
2023-04-22T02:08:28.850Z,13.70
2023-04-22T02:09:33.163Z,11.10
2023-04-22T02:10:35.650Z,13.40
2023-04-22T02:11:37.877Z,13.60
2023-04-22T02:12:40.361Z,13.10
2023-04-22T02:13:42.675Z,12.70
2023-04-22T02:14:45.274Z,13.00
2023-04-22T02:15:47.664Z,13.80
2023-04-22T02:16:51.557Z,14.20
2023-04-22T02:17:55.047Z,13.00
2023-04-22T02:18:57.344Z,15.00
2023-04-22T02:19:59.739Z,12.80
2023-04-22T02:21:02.557Z,14.60
2023-04-22T02:22:04.741Z,13.90
2023-04-22T02:23:07.574Z,13.60
2023-04-22T02:24:09.769Z,15.30
2023-04-22T02:25:12.053Z,13.10
2023-04-22T02:26:14.772Z,11.50
2023-04-22T02:27:17.097Z,13.50
2023-04-22T02:28:20.765Z,14.40
2023-04-22T02:29:22.964Z,14.20
2023-04-22T02:30:25.422Z,14.60
2023-04-22T02:31:27.715Z,12.20
2023-04-22T02:32:30.894Z,14.50
2023-04-22T02:33:34.516Z,13.60
2023-04-22T02:34:36.779Z,13.70
2023-04-22T02:35:39.045Z,13.90
2023-04-22T02:36:41.295Z,15.10
2023-04-22T02:37:43.605Z,14.60
2023-04-22T02:38:45.933Z,14.50
2023-04-22T02:39:50.083Z,11.50
2023-04-22T02:40:52.788Z,14.00
2023-04-22T02:41:55.577Z,13.60
2023-04-22T02:42:58.155Z,13.70
2023-04-22T02:44:00.576Z,15.20
2023-04-22T02:45:03.084Z,12.70
2023-04-22T02:46:05.481Z,15.50
2023-04-22T02:47:09.229Z,13.20
2023-04-22T02:48:11.836Z,14.20
2023-04-22T02:49:14.180Z,13.90
2023-04-22T02:50:16.450Z,14.60
2023-04-22T02:51:18.656Z,13.40
2023-04-22T02:52:21.347Z,14.30
2023-04-22T02:53:23.990Z,13.20
2023-04-22T02:54:26.309Z,13.90
2023-04-22T02:55:28.690Z,14.50
2023-04-22T02:56:31.098Z,14.80
2023-04-22T02:57:33.453Z,12.00
2023-04-22T02:58:35.895Z,10.30
2023-04-22T02:59:38.825Z,14.20
2023-04-22T03:00:41.850Z,15.90
2023-04-22T03:01:44.127Z,14.70
2023-04-22T03:02:48.759Z,15.60
2023-04-22T03:03:53.532Z,13.90
2023-04-22T03:04:58.162Z,10.40
2023-04-22T03:06:01.046Z,13.50
2023-04-22T03:07:04.598Z,15.00
2023-04-22T03:08:07.060Z,14.10
2023-04-22T03:09:09.450Z,13.50
2023-04-22T03:10:13.135Z,13.00
2023-04-22T03:11:15.964Z,12.00
2023-04-22T03:12:18.295Z,12.00
2023-04-22T03:13:21.100Z,10.27
2023-04-22T03:14:23.416Z,12.10
2023-04-22T03:15:25.720Z,10.10
2023-04-22T03:16:29.922Z,13.40
2023-04-22T03:17:33.573Z,12.60
2023-04-22T03:18:37.000Z,13.70
2023-04-22T03:19:40.493Z,12.30
2023-04-22T03:20:43.418Z,14.00
2023-04-22T03:21:45.941Z,13.90
2023-04-22T03:22:48.761Z,14.80
2023-04-22T03:23:54.354Z,14.20
2023-04-22T03:24:56.881Z,14.50
2023-04-22T03:25:59.202Z,14.70
2023-04-22T03:27:01.619Z,13.80
2023-04-22T03:28:04.955Z,14.40
2023-04-22T03:29:07.347Z,14.40
2023-04-22T03:30:10.829Z,15.90
2023-04-22T03:31:13.187Z,15.80
2023-04-22T03:32:15.691Z,14.00
2023-04-22T03:33:19.401Z,14.90
2023-04-22T03:34:26.115Z,15.40
2023-04-22T03:35:28.936Z,14.80
2023-04-22T03:36:32.810Z,14.50
2023-04-22T03:37:35.275Z,15.00
2023-04-22T03:38:41.044Z,14.40
2023-04-22T03:39:43.485Z,14.70
2023-04-22T03:40:46.200Z,13.80
2023-04-22T03:41:52.029Z,14.70
2023-04-22T03:42:54.399Z,14.20
2023-04-22T03:43:58.878Z,14.40
2023-04-22T03:45:01.323Z,15.50
2023-04-22T03:46:07.001Z,15.00
2023-04-22T03:47:10.974Z,14.30
2023-04-22T03:48:15.537Z,13.30
2023-04-22T03:49:19.632Z,15.30
2023-04-22T03:50:22.243Z,15.30
2023-04-22T03:51:25.092Z,16.45
2023-04-22T03:52:27.998Z,15.20
2023-04-22T03:53:32.186Z,16.20
2023-04-22T03:54:35.014Z,14.30
2023-04-22T03:55:37.349Z,14.90
2023-04-22T03:56:40.213Z,14.20
2023-04-22T03:57:42.983Z,14.70
2023-04-22T03:58:46.208Z,12.70
2023-04-22T03:59:49.225Z,15.30
2023-04-22T04:00:51.925Z,16.30
2023-04-22T04:01:54.380Z,16.10
2023-04-22T04:02:58.923Z,12.30
2023-04-22T04:04:02.353Z,14.20
2023-04-22T04:05:07.300Z,15.10
2023-04-22T04:06:10.408Z,14.90
2023-04-22T04:07:12.869Z,14.60
2023-04-22T04:08:15.218Z,15.10
2023-04-22T04:09:18.101Z,14.55
2023-04-22T04:10:22.150Z,15.10
2023-04-22T04:11:26.096Z,16.45
2023-04-22T04:12:28.853Z,15.40
2023-04-22T04:13:31.187Z,15.00
2023-04-22T04:14:35.375Z,15.60
2023-04-22T04:15:38.525Z,14.82
2023-04-22T04:16:41.472Z,15.50
2023-04-22T04:17:45.698Z,14.90
2023-04-22T04:18:51.799Z,15.90
2023-04-22T04:19:55.028Z,16.80
2023-04-22T04:20:57.778Z,14.20
2023-04-22T04:22:02.642Z,15.60
2023-04-22T04:23:06.752Z,16.40
2023-04-22T04:24:09.141Z,15.70
2023-04-22T04:25:13.932Z,16.30
2023-04-22T04:27:29.252Z,15.90
2023-04-22T04:28:31.484Z,13.60
2023-04-22T04:29:35.112Z,11.80
2023-04-22T04:30:39.961Z,15.60
2023-04-22T04:31:42.418Z,15.00
2023-04-22T04:32:44.842Z,13.70
2023-04-22T04:33:49.503Z,15.40
2023-04-22T04:34:52.171Z,15.20
2023-04-22T04:35:55.645Z,16.20
2023-04-22T04:37:00.376Z,15.70
2023-04-22T04:38:04.832Z,17.50
2023-04-22T04:39:10.483Z,17.20
2023-04-22T04:40:13.364Z,14.91
2023-04-22T04:41:17.981Z,15.10
2023-04-22T04:42:20.816Z,16.00
2023-04-22T04:43:25.358Z,15.60
2023-04-22T04:44:29.556Z,16.00
2023-04-22T04:45:32.421Z,17.60
2023-04-22T04:46:35.674Z,16.40
2023-04-22T04:47:38.168Z,16.10
2023-04-22T04:48:45.676Z,15.80
2023-04-22T04:49:48.056Z,15.10
2023-04-22T04:50:51.012Z,14.20
2023-04-22T04:51:53.916Z,14.60
2023-04-22T04:52:57.503Z,15.00
2023-04-22T04:54:01.714Z,14.70
2023-04-22T04:55:06.168Z,15.80
2023-04-22T04:56:10.076Z,15.80
2023-04-22T04:57:12.871Z,14.20
2023-04-22T04:58:15.878Z,14.80
2023-04-22T04:59:18.440Z,15.60
2023-04-22T05:00:20.862Z,14.40
2023-04-22T05:01:24.656Z,15.90
2023-04-22T05:02:30.286Z,13.20
2023-04-22T05:03:33.255Z,13.10
2023-04-22T05:04:36.218Z,13.70
2023-04-22T05:05:39.441Z,14.40
2023-04-22T05:06:41.961Z,14.00
2023-04-22T05:07:44.785Z,12.30
2023-04-22T05:08:48.125Z,11.10
2023-04-22T05:09:50.594Z,13.70
2023-04-22T05:10:53.133Z,13.40
2023-04-22T05:11:55.541Z,12.50
2023-04-22T05:12:57.902Z,15.00
2023-04-22T05:14:02.052Z,13.10
2023-04-22T05:15:07.079Z,13.70
2023-04-22T05:16:10.763Z,12.20
2023-04-22T05:17:14.313Z,13.70
2023-04-22T05:18:17.836Z,12.60
2023-04-22T05:19:20.379Z,13.60
2023-04-22T05:20:23.473Z,12.80
2023-04-22T05:21:25.800Z,12.90
2023-04-22T05:22:29.214Z,11.30
2023-04-22T05:23:32.133Z,12.60
2023-04-22T05:24:35.231Z,13.40
2023-04-22T05:25:45.053Z,13.10
2023-04-22T05:26:48.905Z,13.90
2023-04-22T05:27:53.571Z,12.90
2023-04-22T05:28:56.137Z,12.70
2023-04-22T05:29:58.656Z,12.20
2023-04-22T05:31:03.271Z,11.50
2023-04-22T05:32:07.572Z,11.90
2023-04-22T05:33:10.653Z,12.50
2023-04-22T05:34:13.626Z,9.36
2023-04-22T05:35:16.370Z,11.45
2023-04-22T05:36:18.720Z,11.70
2023-04-22T05:37:22.696Z,13.50
2023-04-22T05:38:26.134Z,11.90
2023-04-22T05:39:31.214Z,11.40
2023-04-22T05:40:35.472Z,13.40
2023-04-22T05:41:38.839Z,12.90
2023-04-22T05:42:43.414Z,13.40
2023-04-22T05:43:47.381Z,14.00
2023-04-22T05:44:51.626Z,14.40
2023-04-22T05:45:53.997Z,14.00
2023-04-22T05:46:57.229Z,13.70
2023-04-22T05:48:01.777Z,13.40
2023-04-22T05:49:06.082Z,15.30
2023-04-22T05:50:27.009Z,15.50
2023-04-22T05:51:31.229Z,14.80
2023-04-22T05:52:33.593Z,13.30
2023-04-22T05:53:41.151Z,13.80
2023-04-22T05:54:43.731Z,14.55
2023-04-22T05:55:46.627Z,13.70
2023-04-22T05:56:50.303Z,13.40
2023-04-22T05:57:53.567Z,13.80
2023-04-22T05:58:58.381Z,15.00
2023-04-22T06:00:04.486Z,14.60
2023-04-22T06:01:09.215Z,14.10
2023-04-22T06:02:19.670Z,13.00
2023-04-22T06:03:22.397Z,14.10
2023-04-22T06:04:25.046Z,14.20
2023-04-22T06:05:28.550Z,14.00
2023-04-22T06:06:33.741Z,14.70
2023-04-22T06:07:36.201Z,13.36
2023-04-22T06:08:40.200Z,14.10
2023-04-22T06:09:42.719Z,14.10
2023-04-22T06:10:46.375Z,14.70
2023-04-22T06:11:48.804Z,15.20
2023-04-22T06:12:51.168Z,13.80
2023-04-22T06:13:54.060Z,14.50
2023-04-22T06:14:59.383Z,15.30
2023-04-22T06:16:02.219Z,13.90
2023-04-22T06:17:04.659Z,16.50
2023-04-22T06:18:07.479Z,14.40
2023-04-22T06:19:10.759Z,15.20
2023-04-22T06:20:13.364Z,16.30
2023-04-22T06:21:15.728Z,15.10
2023-04-22T06:22:18.053Z,14.30
2023-04-22T06:23:22.503Z,12.60
2023-04-22T06:24:24.861Z,14.30
2023-04-22T06:25:28.243Z,14.30
2023-04-22T06:26:31.316Z,15.40
2023-04-22T06:27:33.779Z,16.30
2023-04-22T06:28:36.771Z,15.36
2023-04-22T06:29:42.018Z,14.30
2023-04-22T06:30:44.842Z,14.70
2023-04-22T06:31:47.256Z,16.00
2023-04-22T06:32:51.170Z,14.80
2023-04-22T06:33:53.666Z,14.90
2023-04-22T06:34:57.144Z,4.70
2023-04-22T06:36:00.254Z,15.00
2023-04-22T06:37:02.929Z,15.70
2023-04-22T06:38:05.672Z,13.80
2023-04-22T06:39:09.903Z,14.80
2023-04-22T06:40:20.141Z,14.90
2023-04-22T06:41:24.327Z,13.00
2023-04-22T06:42:29.059Z,15.60
2023-04-22T06:44:46.963Z,14.00
2023-04-22T06:47:10.236Z,15.30
2023-04-22T06:48:23.346Z,15.60
2023-04-22T06:49:42.786Z,14.80
2023-04-22T06:51:02.714Z,13.60
2023-04-22T06:52:05.887Z,14.40
2023-04-22T06:53:09.832Z,15.40
2023-04-22T06:54:12.832Z,14.40
2023-04-22T06:55:15.285Z,14.73
2023-04-22T06:56:18.390Z,13.00
2023-04-22T06:57:20.809Z,13.60
2023-04-22T06:58:23.208Z,15.50
2023-04-22T06:59:26.110Z,13.00
2023-04-22T07:00:29.288Z,14.30
2023-04-22T07:01:34.043Z,13.50
2023-04-22T07:02:37.025Z,0.20
2023-04-22T07:03:40.064Z,14.09
2023-04-22T07:04:44.696Z,13.40
2023-04-22T07:05:47.330Z,13.50
2023-04-22T07:06:49.797Z,12.30
2023-04-22T07:07:53.892Z,13.80
2023-04-22T07:08:57.123Z,13.10
2023-04-22T07:10:00.063Z,14.20
2023-04-22T07:11:05.784Z,12.70
2023-04-22T07:12:10.405Z,14.20
2023-04-22T07:13:13.838Z,14.00
2023-04-22T07:14:16.769Z,14.30
2023-04-22T07:15:19.180Z,11.73
2023-04-22T07:16:21.720Z,12.80
2023-04-22T07:17:24.224Z,11.90
2023-04-22T07:18:26.735Z,12.20
2023-04-22T07:19:29.107Z,13.20
2023-04-22T07:20:32.509Z,12.10
2023-04-22T07:21:34.873Z,11.00
2023-04-22T07:22:37.324Z,6.20
2023-04-22T07:23:39.688Z,11.60
2023-04-22T07:24:42.959Z,11.30
2023-04-22T07:25:45.382Z,9.70
2023-04-22T07:26:47.791Z,11.10
2023-04-22T07:27:50.201Z,11.90
2023-04-22T07:28:52.668Z,12.70
2023-04-22T07:29:54.982Z,11.50
2023-04-22T07:30:57.472Z,11.90
2023-04-22T07:32:00.840Z,12.30
2023-04-22T07:33:04.428Z,11.10
2023-04-22T07:34:07.524Z,11.20
2023-04-22T07:35:09.866Z,10.91
2023-04-22T07:36:12.798Z,11.20
2023-04-22T07:37:15.204Z,11.64
2023-04-22T07:38:18.254Z,10.10
2023-04-22T07:39:22.057Z,10.91
2023-04-22T07:40:24.509Z,10.50
2023-04-22T07:41:27.496Z,11.60
2023-04-22T07:42:29.984Z,11.82
2023-04-22T07:43:32.224Z,9.90
2023-04-22T07:44:34.615Z,11.00
2023-04-22T07:45:37.372Z,10.90
2023-04-22T07:46:39.974Z,0.45
2023-04-22T07:47:42.344Z,10.80
2023-04-22T07:48:45.048Z,11.90
2023-04-22T07:49:47.393Z,11.60
2023-04-22T07:50:49.845Z,5.50
2023-04-22T07:51:52.788Z,11.40
2023-04-22T07:52:55.746Z,10.45
2023-04-22T08:02:19.032Z,10.90
2023-04-22T08:03:22.888Z,10.20
2023-04-22T08:04:25.933Z,11.20
2023-04-22T08:05:28.761Z,10.30
2023-04-22T08:06:31.794Z,10.30
2023-04-22T08:07:34.245Z,8.73
2023-04-22T08:08:36.708Z,11.40
2023-04-22T08:09:39.212Z,10.00
2023-04-22T08:10:42.229Z,9.80
2023-04-22T08:11:44.570Z,8.80
2023-04-22T08:12:46.914Z,10.10
2023-04-22T08:13:49.261Z,9.90
2023-04-22T08:14:51.610Z,9.50
2023-04-22T08:15:53.989Z,10.30
2023-04-22T08:16:56.542Z,9.30
2023-04-22T08:17:59.955Z,9.30
2023-04-22T08:19:02.413Z,10.20
2023-04-22T08:22:11.640Z,10.10
2023-04-22T08:25:18.680Z,10.50
2023-04-22T08:33:40.139Z,5.80
2023-04-22T08:39:53.307Z,10.30
2023-04-22T08:45:06.318Z,9.60
2023-04-22T08:51:32.403Z,9.70
2023-04-22T08:55:45.393Z,10.20
2023-04-22T08:56:50.973Z,10.18
2023-04-22T08:57:53.832Z,10.00
2023-04-22T08:58:56.819Z,11.40
2023-04-22T08:59:59.660Z,10.00
2023-04-22T09:01:02.776Z,10.82
2023-04-22T09:02:05.420Z,9.70
2023-04-22T09:03:08.922Z,11.50
2023-04-22T09:04:15.812Z,10.70
2023-04-22T09:05:20.668Z,9.70
2023-04-22T09:06:23.809Z,11.20
2023-04-22T09:09:17.736Z,7.50
2023-04-22T09:10:20.908Z,11.00
2023-04-22T09:11:24.135Z,10.80
2023-04-22T09:12:26.801Z,8.82
2023-04-22T09:13:32.912Z,9.80
2023-04-22T09:14:37.113Z,11.20
2023-04-22T09:15:40.049Z,10.50
2023-04-22T09:16:47.796Z,9.45
2023-04-22T09:19:12.076Z,11.10
2023-04-22T09:20:18.358Z,9.70
2023-04-22T09:22:47.911Z,9.70
2023-04-22T09:23:56.745Z,9.90
2023-04-22T09:24:59.652Z,9.90
2023-04-22T09:27:26.876Z,9.40
2023-04-22T09:29:49.026Z,8.50
2023-04-22T09:30:54.713Z,9.40
2023-04-22T09:32:10.983Z,7.90
2023-04-22T09:33:14.764Z,9.60
2023-04-22T09:34:17.218Z,9.00
2023-04-22T09:35:33.600Z,8.00
2023-04-22T09:36:35.828Z,8.90
2023-04-22T09:37:49.233Z,8.40
2023-04-22T09:41:38.865Z,8.20
2023-04-22T09:42:54.729Z,8.80
2023-04-22T09:43:58.593Z,9.20
2023-04-22T09:45:02.325Z,8.80
2023-04-22T09:46:08.983Z,9.60
2023-04-22T09:48:21.462Z,9.00
2023-04-22T09:49:26.448Z,10.90
2023-04-22T09:50:29.519Z,10.10
2023-04-22T09:51:32.375Z,9.20
2023-04-22T09:52:34.773Z,9.91
2023-04-22T09:53:37.366Z,9.30
2023-04-22T09:54:40.299Z,6.40
2023-04-22T09:55:48.903Z,7.40
2023-04-22T09:56:53.164Z,9.20
2023-04-22T09:57:57.007Z,8.20
2023-04-22T09:59:01.728Z,9.20
2023-04-22T10:00:07.681Z,9.80
2023-04-22T10:01:10.144Z,9.40
2023-04-22T10:02:18.357Z,8.40
2023-04-22T10:03:25.265Z,8.70
2023-04-22T10:04:30.987Z,9.60
2023-04-22T10:05:37.212Z,9.40
2023-04-22T10:06:42.715Z,9.00
2023-04-22T10:07:47.672Z,9.30
2023-04-22T10:08:53.037Z,8.60
2023-04-22T10:11:17.765Z,10.10
2023-04-22T10:12:29.397Z,9.30
2023-04-22T10:13:29.464Z,9.60
2023-04-22T10:14:31.729Z,9.10
2023-04-22T10:15:43.672Z,10.60
2023-04-22T10:16:50.006Z,9.50
2023-04-22T10:18:02.458Z,9.50
2023-04-22T10:19:11.897Z,9.10
2023-04-22T10:20:17.406Z,9.50
2023-04-22T10:21:26.310Z,9.50
2023-04-22T10:22:32.669Z,9.70
2023-04-22T10:24:52.939Z,7.80
2023-04-22T10:25:56.587Z,7.90
2023-04-22T10:28:16.509Z,8.40
2023-04-22T10:29:21.342Z,7.60
2023-04-22T10:30:29.022Z,7.10
2023-04-22T10:31:31.369Z,7.70
2023-04-22T10:32:37.263Z,8.10
2023-04-22T10:33:40.860Z,8.40
2023-04-22T10:34:44.718Z,3.70
2023-04-22T10:36:07.797Z,7.70
2023-04-22T10:37:11.835Z,7.80
2023-04-22T10:38:17.079Z,6.70
2023-04-22T10:39:22.578Z,8.10
2023-04-22T10:40:25.041Z,6.40
2023-04-22T10:41:31.992Z,7.20
2023-04-22T10:42:35.178Z,8.50
2023-04-22T10:43:41.756Z,7.70
2023-04-22T10:44:53.183Z,6.30
2023-04-22T10:46:00.051Z,6.80
2023-04-22T10:47:02.405Z,7.80
2023-04-22T10:48:05.153Z,8.60
2023-04-22T10:50:41.706Z,8.00
2023-04-22T10:51:49.847Z,7.30
2023-04-22T10:53:00.072Z,3.60
2023-04-22T10:54:02.439Z,4.40
2023-04-22T10:55:08.111Z,7.50
2023-04-22T10:56:19.573Z,7.00
2023-04-22T10:57:23.190Z,6.80
2023-04-22T10:58:29.320Z,7.00
2023-04-22T10:59:33.544Z,6.80
2023-04-22T11:00:52.268Z,8.00
2023-04-22T11:01:53.266Z,7.40
2023-04-22T11:03:11.830Z,6.10
2023-04-22T11:04:23.795Z,7.40
2023-04-22T11:05:26.819Z,5.30
2023-04-22T11:06:35.022Z,7.10
2023-04-22T11:07:41.110Z,7.00
2023-04-22T11:08:49.486Z,6.90
2023-04-22T11:10:04.273Z,6.80
2023-04-22T11:11:10.328Z,7.50
2023-04-22T11:12:36.356Z,6.40
2023-04-22T11:13:41.535Z,7.00
2023-04-22T11:14:46.610Z,6.80
2023-04-22T11:15:52.168Z,6.90
2023-04-22T11:16:55.285Z,6.20
2023-04-22T11:17:58.120Z,6.60
2023-04-22T11:19:03.666Z,5.60
2023-04-22T11:20:11.899Z,6.80
2023-04-22T11:21:20.730Z,7.80
2023-04-22T11:22:28.880Z,7.10
2023-04-22T11:23:32.946Z,6.50
2023-04-22T11:24:38.908Z,6.10
2023-04-22T11:25:41.390Z,7.40
2023-04-22T11:26:49.230Z,6.50
2023-04-22T11:28:00.460Z,6.80
2023-04-22T11:29:02.984Z,7.20
2023-04-22T11:30:15.270Z,6.27
2023-04-22T11:31:19.742Z,6.40
2023-04-22T11:32:23.600Z,7.00
2023-04-22T11:33:28.140Z,6.30
2023-04-22T11:34:33.909Z,6.10
2023-04-22T11:35:38.632Z,6.60
2023-04-22T11:38:05.959Z,7.60
2023-04-22T11:39:08.677Z,6.70
2023-04-22T11:41:24.253Z,6.40
2023-04-22T11:42:27.196Z,6.36
2023-04-22T11:43:29.591Z,7.09
2023-04-22T11:44:31.919Z,5.60
2023-04-22T11:45:41.829Z,7.80
2023-04-22T11:46:47.742Z,6.40
2023-04-22T11:47:52.812Z,6.30
2023-04-22T11:49:15.197Z,6.50
2023-04-22T11:50:24.448Z,6.60
2023-04-22T11:51:28.634Z,6.00
2023-04-22T11:52:54.033Z,6.40
2023-04-22T11:53:56.967Z,6.80
2023-04-22T11:55:01.192Z,7.50
2023-04-22T11:56:05.561Z,6.10
2023-04-22T11:57:08.736Z,6.70
2023-04-22T11:58:14.820Z,6.80
2023-04-22T11:59:19.014Z,7.00
2023-04-22T12:00:23.309Z,6.80
2023-04-22T12:01:30.677Z,6.80
2023-04-22T12:02:33.176Z,6.00
2023-04-22T12:03:43.207Z,4.90
2023-04-22T12:04:47.984Z,6.50
2023-04-22T12:06:00.736Z,6.90
2023-04-22T12:07:03.632Z,6.60
2023-04-22T12:09:19.189Z,7.18
2023-04-22T12:10:23.114Z,5.90
2023-04-22T12:11:32.372Z,3.20
2023-04-22T12:12:39.777Z,6.20
2023-04-22T12:13:45.356Z,7.30
2023-04-22T12:14:53.319Z,6.20
2023-04-22T12:17:10.428Z,7.90
2023-04-22T12:18:16.426Z,7.10
2023-04-22T12:19:22.388Z,7.00
2023-04-22T12:21:43.481Z,7.10
2023-04-22T12:22:45.854Z,4.90
2023-04-22T12:23:52.510Z,6.40
2023-04-22T12:25:01.001Z,1.90
2023-04-22T12:26:04.337Z,6.50
2023-04-22T12:27:07.281Z,6.90
2023-04-22T12:28:10.356Z,6.18
2023-04-22T12:29:13.961Z,5.90
2023-04-22T12:30:19.236Z,5.70
2023-04-22T12:31:21.806Z,5.90
2023-04-22T12:32:29.297Z,6.20
2023-04-22T12:33:34.104Z,5.80
2023-04-22T12:34:38.343Z,6.50
2023-04-22T12:35:40.739Z,6.20
2023-04-22T12:36:43.211Z,6.00
2023-04-22T12:37:52.581Z,6.20
2023-04-22T12:38:55.213Z,6.40
2023-04-22T12:39:58.110Z,6.50
2023-04-22T12:41:04.172Z,6.30
2023-04-22T12:42:08.904Z,7.70
2023-04-22T12:43:15.832Z,6.00
2023-04-22T12:44:18.853Z,6.40
2023-04-22T12:45:23.038Z,6.10
2023-04-22T12:46:25.542Z,6.70
2023-04-22T12:47:28.007Z,7.00
2023-04-22T12:48:31.044Z,6.40
2023-04-22T12:49:33.467Z,7.64
2023-04-22T12:50:36.799Z,6.10
2023-04-22T12:51:42.710Z,5.80
2023-04-22T12:52:44.974Z,7.20
2023-04-22T12:53:47.850Z,6.80
2023-04-22T12:54:50.612Z,6.50
2023-04-22T12:55:53.097Z,7.09
2023-04-22T12:56:55.390Z,6.10
2023-04-22T12:58:03.632Z,5.90
2023-04-22T12:59:06.017Z,7.90
2023-04-22T13:00:09.852Z,8.20
2023-04-22T13:01:12.883Z,7.80
2023-04-22T13:02:15.584Z,6.80
2023-04-22T13:03:18.500Z,6.91
2023-04-22T13:04:21.453Z,7.00
2023-04-22T13:05:25.516Z,6.60
2023-04-22T13:06:28.489Z,6.80
2023-04-22T13:07:31.127Z,5.09
2023-04-22T13:08:33.913Z,7.00
2023-04-22T13:09:36.797Z,6.10
2023-04-22T13:10:39.837Z,6.09
2023-04-22T13:11:42.242Z,6.00
2023-04-22T13:12:45.101Z,6.00
2023-04-22T13:13:47.510Z,5.82
2023-04-22T13:14:49.910Z,6.60
2023-04-22T13:15:52.791Z,6.00
2023-04-22T13:16:55.267Z,5.91
2023-04-22T13:17:57.653Z,7.20
2023-04-22T13:19:00.316Z,5.90
2023-04-22T13:20:03.869Z,6.60
2023-04-22T13:21:06.646Z,7.00
2023-04-22T13:22:12.418Z,6.30
2023-04-22T13:23:14.884Z,6.40
2023-04-22T13:24:17.385Z,6.20
2023-04-22T13:25:20.014Z,6.40
2023-04-22T13:26:23.229Z,6.50
2023-04-22T13:27:26.678Z,6.50
2023-04-22T13:28:29.114Z,7.40
2023-04-22T13:29:31.872Z,6.60
2023-04-22T13:30:34.388Z,6.27
2023-04-22T13:31:40.098Z,6.90
2023-04-22T13:33:55.735Z,7.80
2023-04-22T13:34:58.201Z,6.90
2023-04-22T13:36:00.615Z,6.30
2023-04-22T13:37:06.325Z,7.50
2023-04-22T13:38:09.918Z,6.70
2023-04-22T13:39:12.385Z,7.60
2023-04-22T13:40:15.410Z,6.80
2023-04-22T13:41:19.534Z,5.80
2023-04-22T13:42:21.858Z,3.30
2023-04-22T13:43:24.202Z,7.00
2023-04-22T13:44:27.099Z,7.60
2023-04-22T13:45:30.118Z,6.36
2023-04-22T13:46:32.711Z,7.70
2023-04-22T13:49:23.513Z,7.10
2023-04-22T13:50:32.110Z,7.00
2023-04-22T13:59:08.037Z,5.83
2023-04-22T14:04:22.704Z,4.25
2023-04-22T14:07:58.556Z,3.78
2023-04-22T14:16:52.187Z,7.10
2023-04-22T14:31:19.253Z,6.80
2023-04-22T14:32:21.500Z,7.50
2023-04-22T14:33:24.393Z,6.60
2023-04-22T14:34:26.912Z,6.55
2023-04-22T14:35:29.485Z,6.00
2023-04-22T14:36:31.948Z,6.60
2023-04-22T14:37:35.837Z,6.70
2023-04-22T14:38:38.178Z,6.60
2023-04-22T14:39:40.992Z,6.20
2023-04-22T14:40:45.449Z,7.30
2023-04-22T14:41:57.305Z,6.90
2023-04-22T14:43:01.045Z,6.30
2023-04-22T14:44:03.426Z,6.90
2023-04-22T14:45:07.727Z,6.10
2023-04-22T14:46:22.227Z,6.50
2023-04-22T14:48:23.177Z,7.40
2023-04-22T14:51:49.165Z,5.90
2023-04-22T14:52:52.279Z,5.60
2023-04-22T14:53:56.019Z,5.90
2023-04-22T14:55:00.220Z,5.50
2023-04-22T14:56:04.236Z,5.30
2023-04-22T14:57:08.877Z,6.20
2023-04-22T14:58:12.676Z,5.90
2023-04-22T14:59:15.002Z,5.90
2023-04-22T15:00:20.760Z,6.10
2023-04-22T15:01:23.200Z,6.30
2023-04-22T15:02:25.867Z,6.30
2023-04-22T15:03:31.465Z,6.60
2023-04-22T15:04:38.575Z,6.60
2023-04-22T15:05:42.191Z,6.90
2023-04-22T15:06:44.703Z,5.40
2023-04-22T15:07:47.105Z,6.40
2023-04-22T15:08:49.603Z,6.40
2023-04-22T15:09:52.608Z,6.00
2023-04-22T15:12:31.710Z,6.30
2023-04-22T15:17:01.846Z,5.80
2023-04-22T15:18:04.361Z,5.70
2023-04-22T15:19:06.728Z,4.90
2023-04-22T15:20:10.354Z,5.20
2023-04-22T15:21:13.360Z,6.20
2023-04-22T15:23:42.589Z,6.20
2023-04-22T15:24:47.016Z,5.40
2023-04-22T15:25:49.391Z,5.60
2023-04-22T15:26:52.873Z,5.60
2023-04-22T15:27:55.715Z,4.90
2023-04-22T15:28:58.594Z,4.70
2023-04-22T15:30:01.883Z,4.73
2023-04-22T15:32:20.542Z,6.00
2023-04-22T15:33:23.950Z,5.40
2023-04-22T15:34:26.386Z,4.50
2023-04-22T15:35:28.573Z,5.20
2023-04-22T15:36:31.040Z,6.30
2023-04-22T15:37:33.650Z,5.60
2023-04-22T15:38:36.002Z,5.00
2023-04-22T15:39:38.224Z,5.40
2023-04-22T15:40:43.147Z,5.70
2023-04-22T15:41:45.397Z,4.00
2023-04-22T15:42:47.870Z,3.80
2023-04-22T15:43:51.274Z,5.50
2023-04-22T15:44:55.012Z,4.90
2023-04-22T15:45:59.092Z,5.40
2023-04-22T15:47:06.270Z,4.90
2023-04-22T15:48:10.498Z,6.40
2023-04-22T15:49:15.199Z,6.20
2023-04-22T15:50:18.075Z,5.50